Northglenn, Colorado
Current Conditions -  °F | °C
As of 5:50 PM on Wednesday 22 Oct 2014 (Local Time) from KBJC Reporting Station
Broken Clouds Broken Clouds  
Wind Chill: 17°   Ceiling: 10000
Heat Index: 17°   Visibility: 40mi
Dew Point:   Wind: 13mph
Humidity: 39%   Direction: 290°WNW
Pressure: 30.12"   Gusts: NA
Location:  39.91°N, 104.98°W
Report Text: KBJC 222350Z 29011KT 40SM SCT050 BKN100 17/03 A3012
Loading
Personal Weather Stations






























Interactive Weather Map
Tropical Storm Tracking
New forecast layout! Learn more

10-Day Weather Forecast

Advertisements
Track Severe Weather on mobile